createdAt,value
2018-05-09T00:00:17.558Z,1003.14
2018-05-09T00:01:17.557Z,1003.14
2018-05-09T00:02:17.562Z,1003.15
2018-05-09T00:03:17.562Z,1003.12
2018-05-09T00:04:17.558Z,1003.08
2018-05-09T00:05:17.556Z,1003.13
2018-05-09T00:06:17.562Z,1003.11
2018-05-09T00:07:17.562Z,1003.12
2018-05-09T00:08:17.561Z,1003.08
2018-05-09T00:09:17.561Z,1003.11
2018-05-09T00:10:17.555Z,1003.08
2018-05-09T00:11:17.555Z,1003.10
2018-05-09T00:12:17.555Z,1003.10
2018-05-09T00:13:17.554Z,1003.06
2018-05-09T00:14:17.558Z,1003.10
2018-05-09T00:15:17.566Z,1003.08
2018-05-09T00:16:17.559Z,1003.06
2018-05-09T00:17:17.558Z,1003.07
2018-05-09T00:18:17.552Z,1003.08
2018-05-09T00:19:17.558Z,1003.12
2018-05-09T00:20:17.557Z,1003.14
2018-05-09T00:21:17.555Z,1003.14
2018-05-09T00:22:17.551Z,1003.08
2018-05-09T00:23:17.551Z,1003.11
2018-05-09T00:24:17.550Z,1003.13
2018-05-09T00:25:17.549Z,1003.09
2018-05-09T00:26:17.553Z,1003.09
2018-05-09T00:27:17.553Z,1003.01
2018-05-09T00:28:17.553Z,1003.03
2018-05-09T00:29:17.552Z,1003.08
2018-05-09T00:30:17.548Z,1003.06
2018-05-09T00:31:17.551Z,1003.04
2018-05-09T00:32:17.548Z,1003.05
2018-05-09T00:33:17.550Z,1002.98
2018-05-09T00:34:17.554Z,1002.99
2018-05-09T00:35:17.555Z,1003.01
2018-05-09T00:36:17.550Z,1002.98
2018-05-09T00:37:17.544Z,1002.99
2018-05-09T00:38:17.550Z,1002.99
2018-05-09T00:39:17.549Z,1002.97
2018-05-09T00:40:17.548Z,1003.01
2018-05-09T00:41:17.547Z,1002.91
2018-05-09T00:42:17.543Z,1002.92
2018-05-09T00:43:17.544Z,1002.97
2018-05-09T00:44:17.542Z,1002.96
2018-05-09T00:45:17.541Z,1002.90
2018-05-09T00:46:17.546Z,1002.90
2018-05-09T00:47:17.545Z,1002.91
2018-05-09T00:48:17.546Z,1002.84
2018-05-09T00:49:17.544Z,1002.88
2018-05-09T00:50:17.540Z,1002.88
2018-05-09T00:51:17.539Z,1002.92
2018-05-09T00:52:17.544Z,1002.88
2018-05-09T00:53:17.542Z,1002.89
2018-05-09T00:54:17.536Z,1002.89
2018-05-09T00:55:17.538Z,1002.86
2018-05-09T00:56:17.536Z,1002.87
2018-05-09T00:57:17.535Z,1002.85
2018-05-09T00:58:17.539Z,1002.83
2018-05-09T00:59:17.539Z,1002.86
2018-05-09T01:00:17.539Z,1002.87
2018-05-09T01:01:17.537Z,1002.88
2018-05-09T01:02:17.532Z,1002.84
2018-05-09T01:03:17.534Z,1002.85
2018-05-09T01:04:17.532Z,1002.83
2018-05-09T01:05:17.532Z,1002.85
2018-05-09T01:06:17.537Z,1002.85
2018-05-09T01:07:17.536Z,1002.80
2018-05-09T01:08:17.535Z,1002.82
2018-05-09T01:09:17.529Z,1002.83
2018-05-09T01:10:17.534Z,1002.84
2018-05-09T01:11:17.533Z,1002.78
2018-05-09T01:12:17.532Z,1002.82
2018-05-09T01:13:17.531Z,1002.81
2018-05-09T01:14:17.526Z,1002.76
2018-05-09T01:15:17.526Z,1002.79
2018-05-09T01:16:17.606Z,1002.78
2018-05-09T01:17:17.524Z,1002.83
2018-05-09T01:18:17.528Z,1002.77
2018-05-09T01:19:17.528Z,1002.76
2018-05-09T01:20:17.528Z,1002.77
2018-05-09T01:21:17.526Z,1002.80
2018-05-09T01:22:17.523Z,1002.80
2018-05-09T01:23:17.521Z,1002.75
2018-05-09T01:24:17.525Z,1002.75
2018-05-09T01:25:17.523Z,1002.75
2018-05-09T01:26:17.576Z,1002.75
2018-05-09T01:27:17.518Z,1002.80
2018-05-09T01:28:17.517Z,1002.78
2018-05-09T01:29:17.516Z,1002.79
2018-05-09T01:30:17.521Z,1002.78
2018-05-09T01:31:17.520Z,1002.84
2018-05-09T01:32:17.519Z,1002.78
2018-05-09T01:33:17.519Z,1002.85
2018-05-09T01:34:17.513Z,1002.83
2018-05-09T01:35:17.512Z,1002.79
2018-05-09T01:36:17.511Z,1002.77
2018-05-09T01:37:17.510Z,1002.77
2018-05-09T01:38:17.514Z,1002.78
2018-05-09T01:39:17.513Z,1002.79
2018-05-09T01:40:17.508Z,1002.78
2018-05-09T01:41:17.506Z,1002.77
2018-05-09T01:42:17.513Z,1002.75
2018-05-09T01:43:17.509Z,1002.75
2018-05-09T01:44:17.515Z,1002.75
2018-05-09T01:45:17.508Z,1002.77
2018-05-09T01:46:17.502Z,1002.76
2018-05-09T01:47:17.504Z,1002.72
2018-05-09T01:48:17.500Z,1002.73
2018-05-09T01:49:17.499Z,1002.72
2018-05-09T01:50:17.505Z,1002.75
2018-05-09T01:51:17.506Z,1002.76
2018-05-09T01:52:17.501Z,1002.76
2018-05-09T01:53:17.500Z,1002.80
2018-05-09T01:54:17.495Z,1002.77
2018-05-09T01:55:17.492Z,1002.76
2018-05-09T01:56:17.495Z,1002.74
2018-05-09T01:57:17.494Z,1002.76
2018-05-09T01:58:17.488Z,1002.75
2018-05-09T01:59:17.487Z,1002.71
2018-05-09T02:00:17.487Z,1002.70
2018-05-09T02:01:17.484Z,1002.72
2018-05-09T02:02:17.488Z,1002.71
2018-05-09T02:03:17.488Z,1002.70
2018-05-09T02:04:17.487Z,1002.73
2018-05-09T02:05:17.485Z,1002.73
2018-05-09T02:06:17.479Z,1002.73
2018-05-09T02:07:17.477Z,1002.73
2018-05-09T02:08:17.476Z,1002.77
2018-05-09T02:09:17.474Z,1002.78
2018-05-09T02:10:17.477Z,1002.76
2018-05-09T02:11:17.476Z,1002.77
2018-05-09T02:12:17.470Z,1002.76
2018-05-09T02:13:17.467Z,1002.79
2018-05-09T02:14:17.471Z,1002.76
2018-05-09T02:15:17.473Z,1002.74
2018-05-09T02:16:17.468Z,1002.72
2018-05-09T02:17:17.468Z,1002.76
2018-05-09T02:18:17.461Z,1002.76
2018-05-09T02:19:17.459Z,1002.75
2018-05-09T02:20:17.457Z,1002.73
2018-05-09T02:21:17.455Z,1002.73
2018-05-09T02:22:17.458Z,1002.73
2018-05-09T02:23:17.457Z,1002.72
2018-05-09T02:24:17.460Z,1002.73
2018-05-09T02:25:17.456Z,1002.70
2018-05-09T02:26:17.451Z,1002.68
2018-05-09T02:27:17.446Z,1002.73
2018-05-09T02:28:17.450Z,1002.68
2018-05-09T02:29:17.448Z,1002.67
2018-05-09T02:30:17.441Z,1002.65
2018-05-09T02:31:17.559Z,1002.69
2018-05-09T02:32:17.438Z,1002.66
2018-05-09T02:33:17.435Z,1002.68
2018-05-09T02:34:17.454Z,1002.67
2018-05-09T02:35:17.437Z,1002.64
2018-05-09T02:36:17.435Z,1002.61
2018-05-09T02:37:17.432Z,1002.63
2018-05-09T02:38:17.428Z,1002.60
2018-05-09T02:39:17.425Z,1002.61
2018-05-09T02:40:17.425Z,1002.59
2018-05-09T02:41:17.420Z,1002.59
2018-05-09T02:42:17.424Z,1002.59
2018-05-09T02:43:17.423Z,1002.59
2018-05-09T02:44:17.416Z,1002.59
2018-05-09T02:45:17.413Z,1002.63
2018-05-09T02:46:17.419Z,1002.63
2018-05-09T02:47:17.416Z,1002.57
2018-05-09T02:48:17.412Z,1002.59
2018-05-09T02:49:17.417Z,1002.65
2018-05-09T02:50:17.407Z,1002.63
2018-05-09T02:51:17.402Z,1002.58
2018-05-09T02:52:17.401Z,1002.61
2018-05-09T02:53:17.399Z,1002.57
2018-05-09T02:54:17.400Z,1002.55
2018-05-09T02:55:17.399Z,1002.59
2018-05-09T02:56:17.397Z,1002.67
2018-05-09T02:57:17.396Z,1002.55
2018-05-09T02:58:17.388Z,1002.68
2018-05-09T02:59:17.386Z,1002.62
2018-05-09T03:00:17.390Z,1002.68
2018-05-09T03:01:17.434Z,1002.67
2018-05-09T03:02:17.380Z,1002.70
2018-05-09T03:03:17.377Z,1002.69
2018-05-09T03:04:17.375Z,1002.66
2018-05-09T03:05:17.372Z,1002.70
2018-05-09T03:06:17.379Z,1002.67
2018-05-09T03:07:17.372Z,1002.67
2018-05-09T03:08:17.370Z,1002.71
2018-05-09T03:09:17.367Z,1002.72
2018-05-09T03:10:17.360Z,1002.73
2018-05-09T03:11:17.358Z,1002.68
2018-05-09T03:12:17.357Z,1002.71
2018-05-09T03:13:17.354Z,1002.72
2018-05-09T03:14:17.358Z,1002.73
2018-05-09T03:15:17.354Z,1002.78
2018-05-09T03:16:17.347Z,1002.75
2018-05-09T03:17:17.346Z,1002.73
2018-05-09T03:18:17.347Z,1002.75
2018-05-09T03:19:17.344Z,1002.75
2018-05-09T03:20:17.343Z,1002.78
2018-05-09T03:21:17.339Z,1002.75
2018-05-09T03:22:17.332Z,1002.77
2018-05-09T03:23:17.333Z,1002.82
2018-05-09T03:24:17.328Z,1002.77
2018-05-09T03:25:17.325Z,1002.78
2018-05-09T03:26:17.328Z,1002.77
2018-05-09T03:27:17.330Z,1002.84
2018-05-09T03:28:17.324Z,1002.79
2018-05-09T03:29:17.320Z,1002.83
2018-05-09T03:30:17.315Z,1002.81
2018-05-09T03:31:17.313Z,1002.79
2018-05-09T03:32:17.314Z,1002.81
2018-05-09T03:33:17.312Z,1002.82
2018-05-09T03:34:17.306Z,1002.79
2018-05-09T03:35:17.310Z,1002.84
2018-05-09T03:36:17.301Z,1002.79
2018-05-09T03:37:17.297Z,1002.84
2018-05-09T03:38:17.299Z,1002.81
2018-05-09T03:39:17.297Z,1002.79
2018-05-09T03:40:17.296Z,1002.80
2018-05-09T03:41:17.292Z,1002.81
2018-05-09T03:42:17.286Z,1002.83
2018-05-09T03:43:17.283Z,1002.84
2018-05-09T03:44:17.281Z,1002.81
2018-05-09T03:45:17.277Z,1002.83
2018-05-09T03:46:17.279Z,1002.83
2018-05-09T03:47:17.277Z,1002.86
2018-05-09T03:48:17.269Z,1002.89
2018-05-09T03:49:17.267Z,1002.84
2018-05-09T03:50:17.269Z,1002.93
2018-05-09T03:51:17.266Z,1002.89
2018-05-09T03:52:17.266Z,1002.91
2018-05-09T03:53:17.367Z,1002.88
2018-05-09T03:54:17.254Z,1002.88
2018-05-09T03:55:17.251Z,1002.93
2018-05-09T03:56:17.250Z,1002.95
2018-05-09T03:57:17.249Z,1002.94
2018-05-09T03:58:17.335Z,1002.96
2018-05-09T03:59:17.247Z,1002.99
2018-05-09T04:00:17.242Z,1002.98
2018-05-09T04:01:17.239Z,1002.99
2018-05-09T04:02:17.233Z,1002.99
2018-05-09T04:03:17.230Z,1002.98
2018-05-09T04:04:17.233Z,1003.02
2018-05-09T04:05:17.230Z,1002.97
2018-05-09T04:06:17.224Z,1003.04
2018-05-09T04:07:17.221Z,1003.03
2018-05-09T04:08:17.218Z,1002.98
2018-05-09T04:09:17.217Z,1003.04
2018-05-09T04:10:17.216Z,1003.00
2018-05-09T04:11:17.218Z,1003.03
2018-05-09T04:12:17.213Z,1003.07
2018-05-09T04:13:17.217Z,1003.07
2018-05-09T04:14:17.201Z,1003.04
2018-05-09T04:15:17.199Z,1003.10
2018-05-09T04:16:17.196Z,1003.07
2018-05-09T04:17:17.192Z,1003.09
2018-05-09T04:18:17.195Z,1003.11
2018-05-09T04:19:17.192Z,1002.97
2018-05-09T04:20:17.186Z,1003.05
2018-05-09T04:21:17.185Z,1003.02
2018-05-09T04:22:17.184Z,1003.07
2018-05-09T04:23:17.182Z,1003.06
2018-05-09T04:24:17.275Z,1003.08
2018-05-09T04:25:17.177Z,1003.09
2018-05-09T04:26:17.171Z,1003.09
2018-05-09T04:27:17.169Z,1003.07
2018-05-09T04:28:17.234Z,1003.08
2018-05-09T04:29:17.161Z,1003.01
2018-05-09T04:30:17.164Z,1003.06
2018-05-09T04:31:17.162Z,1003.06
2018-05-09T04:32:17.160Z,1003.07
2018-05-09T04:33:17.158Z,1003.05
2018-05-09T04:34:17.151Z,1003.09
2018-05-09T04:35:17.149Z,1003.06
2018-05-09T04:36:17.247Z,1003.14
2018-05-09T04:37:17.148Z,1003.12
2018-05-09T04:38:17.141Z,1003.18
2018-05-09T04:39:17.139Z,1003.20
2018-05-09T04:40:17.137Z,1003.23
2018-05-09T04:41:17.135Z,1003.25
2018-05-09T04:42:17.136Z,1003.24
2018-05-09T04:43:17.135Z,1003.36
2018-05-09T04:44:17.135Z,1003.29
2018-05-09T04:45:17.131Z,1003.35
2018-05-09T04:46:17.125Z,1003.37
2018-05-09T04:47:17.127Z,1003.37
2018-05-09T04:48:17.123Z,1003.42
2018-05-09T04:49:17.168Z,1003.41
2018-05-09T04:50:17.125Z,1003.50
2018-05-09T04:51:17.124Z,1003.53
2018-05-09T04:52:17.118Z,1003.59
2018-05-09T04:53:17.123Z,1003.62
2018-05-09T04:54:17.121Z,1003.62
2018-05-09T04:55:17.121Z,1003.69
2018-05-09T04:56:17.119Z,1003.76
2018-05-09T04:57:17.119Z,1003.71
2018-05-09T04:58:17.115Z,1003.76
2018-05-09T04:59:17.115Z,1003.77
2018-05-09T05:00:17.116Z,1003.83
2018-05-09T05:01:17.115Z,1003.85
2018-05-09T05:02:17.121Z,1003.89
2018-05-09T05:03:17.124Z,1003.87
2018-05-09T05:04:17.123Z,1003.86
2018-05-09T05:05:17.124Z,1003.90
2018-05-09T05:06:17.120Z,1003.95
2018-05-09T05:07:17.121Z,1003.93
2018-05-09T05:08:17.128Z,1003.97
2018-05-09T05:09:17.129Z,1003.99
2018-05-09T05:10:17.126Z,1004.00
2018-05-09T05:11:17.131Z,1004.05
2018-05-09T05:12:17.129Z,1004.08
2018-05-09T05:13:17.131Z,1004.07
2018-05-09T05:14:17.138Z,1004.13
2018-05-09T05:15:17.140Z,1004.16
2018-05-09T05:16:17.143Z,1004.14
2018-05-09T05:17:17.145Z,1004.19
2018-05-09T05:18:17.144Z,1004.21
2018-05-09T05:19:17.146Z,1004.21
2018-05-09T05:20:17.150Z,1004.22
2018-05-09T05:21:17.152Z,1004.20
2018-05-09T05:22:17.161Z,1004.25
2018-05-09T05:23:17.164Z,1004.27
2018-05-09T05:24:17.163Z,1004.29
2018-05-09T05:25:17.167Z,1004.32
2018-05-09T05:26:17.175Z,1004.36
2018-05-09T05:27:17.180Z,1004.42
2018-05-09T05:28:17.184Z,1004.47
2018-05-09T05:29:17.186Z,1004.51
2018-05-09T05:30:17.187Z,1004.47
2018-05-09T05:31:17.191Z,1004.50
2018-05-09T05:32:17.196Z,1004.54
2018-05-09T05:33:17.200Z,1004.54
2018-05-09T05:34:17.212Z,1004.60
2018-05-09T05:35:17.216Z,1004.59
2018-05-09T05:36:17.219Z,1004.59
2018-05-09T05:37:17.223Z,1004.62
2018-05-09T05:38:17.224Z,1004.67
2018-05-09T05:39:17.230Z,1004.65
2018-05-09T05:40:17.241Z,1004.70
2018-05-09T05:41:17.244Z,1004.67
2018-05-09T05:42:17.247Z,1004.70
2018-05-09T05:43:17.252Z,1004.70
2018-05-09T05:44:17.259Z,1004.74
2018-05-09T05:45:17.482Z,1004.75
2018-05-09T05:46:17.277Z,1004.73
2018-05-09T05:47:17.282Z,1004.72
2018-05-09T05:48:17.289Z,1004.76
2018-05-09T05:49:17.293Z,1004.71
2018-05-09T05:50:17.296Z,1004.77
2018-05-09T05:51:17.302Z,1004.81
2018-05-09T05:52:17.309Z,1004.77
2018-05-09T05:53:17.317Z,1004.79
2018-05-09T05:54:17.326Z,1004.82
2018-05-09T05:55:17.335Z,1004.81
2018-05-09T05:56:17.337Z,1004.89
2018-05-09T05:57:17.344Z,1004.85
2018-05-09T05:58:17.359Z,1004.90
2018-05-09T05:59:17.364Z,1004.93
2018-05-09T06:00:17.378Z,1004.99
2018-05-09T06:01:17.384Z,1004.97
2018-05-09T06:02:17.383Z,1004.99
2018-05-09T06:03:17.390Z,1004.99
2018-05-09T06:04:17.399Z,1005.02
2018-05-09T06:05:17.408Z,1005.07
2018-05-09T06:06:17.523Z,1005.06
2018-05-09T06:07:17.430Z,1005.08
2018-05-09T06:08:17.437Z,1005.05
2018-05-09T06:09:17.445Z,1005.06
2018-05-09T06:10:17.450Z,1005.09
2018-05-09T06:11:17.460Z,1005.10
2018-05-09T06:12:17.473Z,1005.13
2018-05-09T06:13:17.480Z,1005.15
2018-05-09T06:14:17.485Z,1005.14
2018-05-09T06:15:17.494Z,1005.17
2018-05-09T06:16:17.508Z,1005.19
2018-05-09T06:17:17.562Z,1005.26
2018-05-09T06:18:17.529Z,1005.20
2018-05-09T06:19:17.539Z,1005.21
2018-05-09T06:20:17.549Z,1005.27
2018-05-09T06:21:17.558Z,1005.25
2018-05-09T06:22:17.563Z,1005.26
2018-05-09T06:23:17.573Z,1005.22
2018-05-09T06:24:17.793Z,1005.27
2018-05-09T06:25:17.593Z,1005.24
2018-05-09T06:26:17.608Z,1005.25
2018-05-09T06:27:17.618Z,1005.33
2018-05-09T06:28:17.625Z,1005.33
2018-05-09T06:29:17.642Z,1005.29
2018-05-09T06:30:17.650Z,1005.30
2018-05-09T06:31:17.665Z,1005.33
2018-05-09T06:32:17.673Z,1005.35
2018-05-09T06:33:17.685Z,1005.33
2018-05-09T06:34:17.692Z,1005.31
2018-05-09T06:35:17.702Z,1005.37
2018-05-09T06:36:17.714Z,1005.34
2018-05-09T06:37:17.725Z,1005.36
2018-05-09T06:38:17.742Z,1005.42
2018-05-09T06:39:17.753Z,1005.43
2018-05-09T06:40:17.767Z,1005.39
2018-05-09T06:41:17.778Z,1005.40
2018-05-09T06:42:17.784Z,1005.44
2018-05-09T06:43:17.802Z,1005.43
2018-05-09T06:44:17.815Z,1005.47
2018-05-09T06:45:17.826Z,1005.50
2018-05-09T06:46:17.833Z,1005.51
2018-05-09T06:47:17.846Z,1005.49
2018-05-09T06:48:17.858Z,1005.47
2018-05-09T06:49:17.870Z,1005.48
2018-05-09T06:50:17.887Z,1005.46
2018-05-09T06:51:17.901Z,1005.47
2018-05-09T06:52:17.914Z,1005.48
2018-05-09T06:53:17.925Z,1005.48
2018-05-09T06:54:17.938Z,1005.50
2018-05-09T06:55:17.948Z,1005.53
2018-05-09T06:56:17.961Z,1005.57
2018-05-09T06:57:17.973Z,1005.53
2018-05-09T06:58:17.993Z,1005.54
2018-05-09T06:59:18.005Z,1005.56
2018-05-09T07:00:18.014Z,1005.57
2018-05-09T07:01:18.027Z,1005.52
2018-05-09T07:02:18.045Z,1005.56
2018-05-09T07:03:18.059Z,1005.55
2018-05-09T07:04:18.075Z,1005.60
2018-05-09T07:05:18.083Z,1005.58
2018-05-09T07:06:18.312Z,1005.59
2018-05-09T07:07:18.107Z,1005.59
2018-05-09T07:08:18.186Z,1005.66
2018-05-09T07:09:18.134Z,1005.62
2018-05-09T07:10:18.151Z,1005.62
2018-05-09T07:11:18.165Z,1005.66
2018-05-09T07:12:18.180Z,1005.65
2018-05-09T07:13:18.194Z,1005.69
2018-05-09T07:14:18.202Z,1005.70
2018-05-09T07:15:18.216Z,1005.71
2018-05-09T07:16:18.234Z,1005.72
2018-05-09T07:17:18.249Z,1005.74
2018-05-09T07:18:18.258Z,1005.76
2018-05-09T07:19:18.272Z,1004.89
2018-05-09T07:20:18.286Z,1004.86
2018-05-09T07:21:18.299Z,1004.92
2018-05-09T07:22:18.324Z,1004.97
2018-05-09T07:23:18.340Z,1004.96
2018-05-09T07:24:18.347Z,1005.05
2018-05-09T07:25:18.360Z,1005.07
2018-05-09T07:26:18.371Z,1005.13
2018-05-09T07:27:18.384Z,1005.11
2018-05-09T07:28:18.400Z,1005.05
2018-05-09T07:29:18.412Z,1005.08
2018-05-09T07:30:18.435Z,1005.11
2018-05-09T07:31:18.447Z,1005.09
2018-05-09T07:32:18.457Z,1005.08
2018-05-09T07:33:18.471Z,1005.06
2018-05-09T07:34:18.491Z,1004.94
2018-05-09T07:35:18.507Z,1004.90
2018-05-09T07:36:18.521Z,1004.91
2018-05-09T07:37:18.536Z,1004.89
2018-05-09T07:38:18.546Z,1004.89
2018-05-09T07:39:18.625Z,1004.89
2018-05-09T07:40:18.577Z,1004.94
2018-05-09T07:41:18.592Z,1004.86
2018-05-09T07:42:18.710Z,1004.89
2018-05-09T07:43:18.629Z,1004.91
2018-05-09T07:44:18.644Z,1004.90
2018-05-09T07:45:18.658Z,1004.92
2018-05-09T07:46:18.670Z,1004.93
2018-05-09T07:47:18.688Z,1004.94
2018-05-09T07:48:18.708Z,1004.88
2018-05-09T07:49:18.723Z,1004.95
2018-05-09T07:50:18.736Z,1004.92
2018-05-09T07:51:18.751Z,1004.87
2018-05-09T07:52:18.767Z,1004.89
2018-05-09T07:53:18.783Z,1004.88
2018-05-09T07:54:18.804Z,1004.89
2018-05-09T07:55:18.822Z,1004.88
2018-05-09T07:56:18.839Z,1004.90
2018-05-09T07:57:18.854Z,1004.95
2018-05-09T07:58:18.865Z,1004.97
2018-05-09T07:59:18.883Z,1004.96
2018-05-09T08:00:18.900Z,1004.95
2018-05-09T08:01:18.915Z,1004.94
2018-05-09T08:02:18.936Z,1004.95
2018-05-09T08:03:18.953Z,1004.93
2018-05-09T08:04:18.970Z,1004.90
2018-05-09T08:05:18.982Z,1004.86
2018-05-09T08:06:19.003Z,1004.84
2018-05-09T08:07:19.020Z,1004.83
2018-05-09T08:08:19.039Z,1004.84
2018-05-09T08:09:19.058Z,1004.88
2018-05-09T08:10:19.066Z,1004.88
2018-05-09T08:11:19.084Z,1004.90
2018-05-09T08:12:19.105Z,1004.94
2018-05-09T08:13:19.118Z,1004.93
2018-05-09T08:14:19.141Z,1004.95
2018-05-09T08:15:19.160Z,1004.95
2018-05-09T08:16:19.179Z,1004.94
2018-05-09T08:17:19.193Z,1004.99
2018-05-09T08:18:19.206Z,1005.03
2018-05-09T08:19:19.224Z,1005.04
2018-05-09T08:20:19.246Z,1005.04
2018-05-09T08:21:19.263Z,1005.06
2018-05-09T08:22:19.277Z,1005.10
2018-05-09T08:23:19.295Z,1005.15
2018-05-09T08:24:19.314Z,1005.18
2018-05-09T08:25:19.332Z,1005.19
2018-05-09T08:26:19.356Z,1005.22
2018-05-09T08:27:19.373Z,1005.30
2018-05-09T08:28:19.393Z,1005.31
2018-05-09T08:29:19.411Z,1005.40
2018-05-09T08:30:19.473Z,1005.42
2018-05-09T08:31:19.442Z,1005.36
2018-05-09T08:32:19.460Z,1005.33
2018-05-09T08:33:19.479Z,1005.40
2018-05-09T08:34:19.503Z,1005.42
2018-05-09T08:35:19.521Z,1005.41
2018-05-09T08:36:19.618Z,1005.47
2018-05-09T08:37:19.554Z,1005.49
2018-05-09T08:38:19.580Z,1005.54
2018-05-09T08:39:19.596Z,1005.54
2018-05-09T08:40:19.617Z,1005.52
2018-05-09T08:41:19.633Z,1005.59
2018-05-09T08:42:19.649Z,1005.65
2018-05-09T08:43:19.765Z,1005.66
2018-05-09T08:44:19.686Z,1005.63
2018-05-09T08:45:19.704Z,1005.62
2018-05-09T08:46:19.729Z,1005.66
2018-05-09T08:47:19.748Z,1005.62
2018-05-09T08:48:19.766Z,1005.57
2018-05-09T08:49:19.872Z,1005.41
2018-05-09T08:50:19.799Z,1005.21
2018-05-09T08:51:19.818Z,1004.98
2018-05-09T08:52:19.842Z,1004.93
2018-05-09T08:53:19.860Z,1004.89
2018-05-09T08:54:19.876Z,1004.85
2018-05-09T08:55:19.964Z,1004.85
2018-05-09T08:56:19.914Z,1004.82
2018-05-09T08:57:19.934Z,1004.82
2018-05-09T08:58:19.958Z,1004.75
2018-05-09T08:59:19.976Z,1004.77
2018-05-09T09:00:19.995Z,1004.80
2018-05-09T09:01:20.015Z,1004.72
2018-05-09T09:02:20.030Z,1004.75
2018-05-09T09:03:20.049Z,1004.83
2018-05-09T09:04:20.186Z,1004.76
2018-05-09T09:05:20.087Z,1004.78
2018-05-09T09:06:20.124Z,1004.80
2018-05-09T09:07:20.130Z,1004.79
2018-05-09T09:08:20.147Z,1004.80
2018-05-09T09:09:20.163Z,1004.75
2018-05-09T09:10:20.187Z,1004.72
2018-05-09T09:11:20.207Z,1004.71
2018-05-09T09:12:20.227Z,1004.72
2018-05-09T09:13:20.247Z,1004.73
2018-05-09T09:14:20.261Z,1004.70
2018-05-09T09:15:20.355Z,1004.72
2018-05-09T09:16:20.302Z,1004.76
2018-05-09T09:17:20.317Z,1004.73
2018-05-09T09:18:20.342Z,1004.71
2018-05-09T09:19:20.362Z,1004.71
2018-05-09T09:20:20.382Z,1004.72
2018-05-09T09:21:20.400Z,1004.71
2018-05-09T09:22:20.415Z,1004.72
2018-05-09T09:23:20.435Z,1004.70
2018-05-09T09:24:20.460Z,1004.75
2018-05-09T09:25:20.479Z,1004.71
2018-05-09T09:26:20.495Z,1004.71
2018-05-09T09:27:20.516Z,1004.75
2018-05-09T09:28:20.536Z,1004.69
2018-05-09T09:29:20.555Z,1004.69
2018-05-09T09:30:20.581Z,1004.68
2018-05-09T09:31:20.601Z,1004.69
2018-05-09T09:32:20.621Z,1004.66
2018-05-09T09:33:20.640Z,1004.66
2018-05-09T09:34:20.654Z,1004.65
2018-05-09T09:35:20.674Z,1004.58
2018-05-09T09:36:20.694Z,1004.54
2018-05-09T09:37:20.713Z,1004.55
2018-05-09T09:38:20.740Z,1004.53
2018-05-09T09:39:20.760Z,1004.57
2018-05-09T09:40:20.773Z,1004.51
2018-05-09T09:41:20.818Z,1004.50
2018-05-09T09:42:20.816Z,1004.53
2018-05-09T09:43:20.835Z,1004.52
2018-05-09T09:44:20.854Z,1004.50
2018-05-09T09:45:20.873Z,1004.40
2018-05-09T09:46:20.888Z,1004.41
2018-05-09T09:47:20.908Z,1004.40
2018-05-09T09:48:20.926Z,1004.36
2018-05-09T09:49:20.943Z,1004.35
2018-05-09T09:50:20.966Z,1004.37
2018-05-09T09:51:20.985Z,1004.34
2018-05-09T09:52:21.004Z,1004.33
2018-05-09T09:53:21.023Z,1004.32
2018-05-09T09:54:21.035Z,1004.28
2018-05-09T09:55:21.055Z,1004.31
2018-05-09T09:56:21.079Z,1004.31
2018-05-09T09:57:21.095Z,1004.30
2018-05-09T09:58:21.112Z,1004.26
2018-05-09T09:59:21.129Z,1004.25
2018-05-09T10:00:21.147Z,1004.19
2018-05-09T10:01:21.164Z,1004.19
2018-05-09T10:02:21.187Z,1004.16
2018-05-09T10:03:21.207Z,1004.19
2018-05-09T10:04:21.226Z,1004.14
2018-05-09T10:05:21.245Z,1004.16
2018-05-09T10:06:21.258Z,1004.09
2018-05-09T10:07:21.278Z,1004.10
2018-05-09T10:08:21.298Z,1004.11
2018-05-09T10:09:21.318Z,1004.08
2018-05-09T10:10:21.341Z,1004.07
2018-05-09T10:11:21.362Z,1004.05
2018-05-09T10:12:21.376Z,1003.97
2018-05-09T10:13:21.396Z,1003.97
2018-05-09T10:14:21.421Z,1004.00
2018-05-09T10:15:21.440Z,1004.02
2018-05-09T10:16:21.508Z,1004.02
2018-05-09T10:17:21.478Z,1004.00
2018-05-09T10:18:21.494Z,1003.96
2018-05-09T10:19:21.514Z,1003.92
2018-05-09T10:20:21.534Z,1003.93
2018-05-09T10:21:21.552Z,1003.86
2018-05-09T10:22:21.577Z,1003.88
2018-05-09T10:23:21.665Z,1003.86
2018-05-09T10:24:21.616Z,1003.84
2018-05-09T10:25:21.634Z,1003.83
2018-05-09T10:26:21.649Z,1003.87
2018-05-09T10:27:21.669Z,1003.80
2018-05-09T10:28:21.691Z,1003.79
2018-05-09T10:29:21.711Z,1003.81
2018-05-09T10:30:21.724Z,1003.75
2018-05-09T10:31:21.767Z,1003.74
2018-05-09T10:32:21.762Z,1003.72
2018-05-09T10:33:21.779Z,1003.70
2018-05-09T10:34:21.803Z,1003.67
2018-05-09T10:35:21.821Z,1003.71
2018-05-09T10:36:21.840Z,1003.69
2018-05-09T10:37:21.858Z,1003.66
2018-05-09T10:38:21.871Z,1003.64
2018-05-09T10:39:21.890Z,1003.66
2018-05-09T10:40:21.908Z,1003.61
2018-05-09T10:41:21.926Z,1003.62
2018-05-09T10:42:21.949Z,1003.66
2018-05-09T10:43:21.969Z,1003.63
2018-05-09T10:44:21.981Z,1003.60
2018-05-09T10:45:22.000Z,1003.58
2018-05-09T10:46:22.022Z,1003.61
2018-05-09T10:47:22.041Z,1003.58
2018-05-09T10:48:22.059Z,1003.58
2018-05-09T10:49:22.077Z,1003.55
2018-05-09T10:50:22.092Z,1003.53
2018-05-09T10:51:22.111Z,1003.51
2018-05-09T10:52:22.131Z,1003.53
2018-05-09T10:53:22.151Z,1003.53
2018-05-09T10:54:22.174Z,1003.50
2018-05-09T10:55:22.194Z,1003.55
2018-05-09T10:56:22.212Z,1003.56
2018-05-09T10:57:22.231Z,1003.52
2018-05-09T10:58:22.246Z,1003.43
2018-05-09T10:59:22.266Z,1003.47
2018-05-09T11:00:22.289Z,1003.47
2018-05-09T11:01:22.308Z,1003.42
2018-05-09T11:02:22.322Z,1003.46
2018-05-09T11:03:22.341Z,1003.47
2018-05-09T11:04:22.361Z,1003.46
2018-05-09T11:05:22.378Z,1003.48
2018-05-09T11:06:22.402Z,1003.42
2018-05-09T11:07:22.421Z,1003.42
2018-05-09T11:08:22.440Z,1003.42
2018-05-09T11:09:22.458Z,1003.51
2018-05-09T11:10:22.500Z,1003.47
2018-05-09T11:11:22.491Z,1003.34
2018-05-09T11:12:22.509Z,1003.31
2018-05-09T11:13:22.526Z,1003.34
2018-05-09T11:14:22.548Z,1003.25
2018-05-09T11:15:22.566Z,1003.19
2018-05-09T11:16:22.580Z,1003.20
2018-05-09T11:17:22.600Z,1003.12
2018-05-09T11:18:22.621Z,1003.07
2018-05-09T11:19:22.638Z,1003.00
2018-05-09T11:20:22.656Z,1002.96
2018-05-09T11:21:22.671Z,1002.91
2018-05-09T11:22:22.683Z,1002.91
2018-05-09T11:23:22.699Z,1002.86
2018-05-09T11:24:22.785Z,1002.74
2018-05-09T11:25:22.730Z,1002.83
2018-05-09T11:26:22.751Z,1002.77
2018-05-09T11:27:22.768Z,1002.73
2018-05-09T11:28:22.780Z,1002.70
2018-05-09T11:29:22.795Z,1002.59
2018-05-09T11:30:22.810Z,1002.61
2018-05-09T11:31:22.819Z,1002.53
2018-05-09T11:32:22.837Z,1002.53
2018-05-09T11:33:22.850Z,1002.54
2018-05-09T11:34:22.861Z,1002.55
2018-05-09T11:35:22.875Z,1002.50
2018-05-09T11:36:22.890Z,1002.51
2018-05-09T11:37:22.972Z,1002.57
2018-05-09T11:38:22.915Z,1002.52
2018-05-09T11:39:22.926Z,1002.47
2018-05-09T11:40:22.938Z,1002.44
2018-05-09T11:41:22.948Z,1002.44
2018-05-09T11:42:22.958Z,1002.41
2018-05-09T11:43:22.966Z,1002.36
2018-05-09T11:44:22.975Z,1002.35
2018-05-09T11:45:22.985Z,1002.33
2018-05-09T11:46:23.000Z,1002.38
2018-05-09T11:47:23.011Z,1002.38
2018-05-09T11:48:23.015Z,1002.30
2018-05-09T11:49:23.024Z,1002.31
2018-05-09T11:50:23.041Z,1002.28
2018-05-09T11:51:23.048Z,1002.24
2018-05-09T11:52:23.057Z,1002.25
2018-05-09T11:53:23.065Z,1002.23
2018-05-09T11:54:23.073Z,1002.23
2018-05-09T11:55:23.080Z,1002.26
2018-05-09T11:56:23.089Z,1002.19
2018-05-09T11:57:23.096Z,1002.20
2018-05-09T11:58:23.110Z,1002.24
2018-05-09T11:59:23.118Z,1002.23
2018-05-09T12:00:23.136Z,1002.22
2018-05-09T12:01:23.134Z,1002.24
2018-05-09T12:02:23.138Z,1002.18
2018-05-09T12:03:23.147Z,1002.24
2018-05-09T12:04:23.160Z,1002.22
2018-05-09T12:05:23.166Z,1002.13